MST,Max TemperatureF,Mean TemperatureF,Min TemperatureF,Max Dew PointF,MeanDew PointF,Min DewpointF,Max Humidity, Mean Humidity, Min Humidity, Max Sea Level PressureIn, Mean Sea Level PressureIn, Min Sea Level PressureIn, Max VisibilityMiles, Mean VisibilityMiles, Min VisibilityMiles, Max Wind SpeedMPH, Mean Wind SpeedMPH, Max Gust SpeedMPH,PrecipitationIn, CloudCover, Events, WindDirDegrees
2012-3-1,50,42,35,31,21,9,85,47,19,29.94,29.83,29.75,10,9,2,24,6,41,0.01,3,Rain-Snow,270
2012-3-2,48,39,30,32,9,-9,87,38,9,30.30,30.07,29.83,10,9,2,17,9,29,0.02,2,Snow,296
2012-3-3,50,39,28,16,8,-2,41,28,18,30.42,30.35,30.29,10,10,7,9,3,,0.00,0,,326
2012-3-4,57,44,32,22,20,16,59,41,21,30.38,30.29,30.21,10,9,2,6,2,,0.00,0,,29
2012-3-5,61,48,34,23,21,19,57,37,22,30.22,30.09,29.89,10,10,8,7,2,,0.00,0,,28
2012-3-6,71,56,41,23,12,-3,47,23,5,29.87,29.52,29.29,10,10,7,21,6,36,0.00,0,,215
2012-3-7,50,42,33,28,19,8,70,46,25,30.03,29.71,29.35,10,8,1,16,10,26,0.00,6,Snow,281
2012-3-8,57,46,35,20,16,12,52,31,16,30.37,30.24,30.04,10,10,9,7,4,,0.00,0,,59
2012-3-9,59,48,36,18,14,12,43,28,16,30.40,30.27,30.10,10,9,4,8,2,,0.00,0,,284
2012-3-10,61,50,39,23,20,17,49,33,21,30.09,29.98,29.86,10,10,9,7,3,,0.00,0,,212
2012-3-11,66,52,39,19,14,10,40,23,12,29.90,29.82,29.74,10,10,10,9,3,18,0.00,0,,280
2012-3-12,66,56,46,16,13,8,29,19,12,30.02,29.90,29.83,10,10,10,9,4,,0.00,0,,243
2012-3-13,73,58,44,15,7,1,25,14,6,30.01,29.88,29.76,10,10,2,12,5,21,0.00,0,,201
2012-3-14,68,54,41,18,9,5,25,16,9,30.07,29.96,29.90,10,9,2,8,2,,0.00,0,,330
2012-3-15,72,59,46,22,20,16,37,23,13,30.09,29.98,29.90,10,10,9,8,3,,0.00,0,,17
2012-3-16,73,60,46,23,20,17,37,22,12,29.91,29.80,29.66,10,10,10,8,2,,0.00,0,,12
2012-3-17,70,61,52,35,23,18,53,25,15,29.65,29.54,29.41,10,10,9,22,10,40,0.00,1,Rain,177
2012-3-18,53,43,33,37,29,14,93,67,27,29.68,29.50,29.35,10,7,0,26,13,43,0.17,6,Fog-Rain-Snow,220
2012-3-19,46,40,34,25,20,15,67,47,28,29.89,29.75,29.66,10,10,10,13,4,24,0.00,4,,255
2012-3-20,53,43,33,22,17,12,64,38,20,30.12,30.03,29.91,10,10,10,9,3,,0.00,0,,341
2012-3-21,63,51,39,26,24,22,55,37,23,30.11,30.02,29.93,10,10,3,7,2,,0.00,0,,88
2012-3-22,69,56,42,28,24,16,53,32,14,29.98,29.90,29.82,10,10,10,8,2,,0.00,0,,33
2012-3-23,73,60,46,28,25,22,44,28,14,29.96,29.89,29.84,10,10,10,10,4,,0.00,0,,268
2012-3-24,73,62,50,30,25,17,44,27,12,30.00,29.90,29.83,10,10,10,10,3,,0.00,0,,157
2012-3-25,75,65,55,27,21,12,31,21,10,29.85,29.75,29.66,10,10,10,20,7,32,0.00,0,,179
2012-3-26,66,57,48,28,20,13,40,26,13,29.97,29.82,29.64,10,10,10,20,10,29,0.00,0,,247
2012-3-27,69,56,42,25,23,21,47,30,17,30.04,29.95,29.86,10,10,10,8,3,,0.00,0,,22
2012-3-28,71,58,46,24,19,7,39,22,10,30.01,29.88,29.79,10,10,10,13,4,21,0.00,0,,342
2012-3-29,72,60,48,25,21,16,31,22,15,29.94,29.88,29.81,10,10,9,7,2,,0.00,0,,335
2012-3-30,79,64,48,26,25,22,39,24,12,29.94,29.85,29.77,10,10,10,6,3,,0.00,0,,139
2012-3-31,82,67,52,28,25,20,40,22,10,29.86,29.72,29.60,10,10,10,15,5,25,0.00,0,,193